sensor_id;sensor_type;location;lat;lon;timestamp;P1;durP1;ratioP1;P2;durP2;ratioP2
62362;SDS011;48396;48.426;1.500;2023-04-03T00:01:11;23.92;;;11.48;;
62362;SDS011;48396;48.426;1.500;2023-04-03T00:03:37;23.05;;;10.68;;
62362;SDS011;48396;48.426;1.500;2023-04-03T00:06:03;22.27;;;10.73;;
62362;SDS011;48396;48.426;1.500;2023-04-03T00:08:31;19.17;;;9.52;;
62362;SDS011;48396;48.426;1.500;2023-04-03T00:10:57;21.65;;;10.25;;
62362;SDS011;48396;48.426;1.500;2023-04-03T00:13:23;18.63;;;8.25;;
62362;SDS011;48396;48.426;1.500;2023-04-03T00:15:50;17.63;;;8.20;;
62362;SDS011;48396;48.426;1.500;2023-04-03T00:18:16;20.63;;;9.75;;
62362;SDS011;48396;48.426;1.500;2023-04-03T00:20:42;21.00;;;9.40;;
62362;SDS011;48396;48.426;1.500;2023-04-03T00:23:07;22.73;;;10.32;;
62362;SDS011;48396;48.426;1.500;2023-04-03T00:25:33;25.17;;;11.45;;
62362;SDS011;48396;48.426;1.500;2023-04-03T00:27:59;23.63;;;11.70;;
62362;SDS011;48396;48.426;1.500;2023-04-03T00:30:24;20.25;;;9.55;;
62362;SDS011;48396;48.426;1.500;2023-04-03T00:32:51;21.30;;;9.88;;
62362;SDS011;48396;48.426;1.500;2023-04-03T00:35:18;22.17;;;10.77;;
62362;SDS011;48396;48.426;1.500;2023-04-03T00:37:45;22.63;;;11.20;;
62362;SDS011;48396;48.426;1.500;2023-04-03T00:40:11;21.77;;;10.82;;
62362;SDS011;48396;48.426;1.500;2023-04-03T00:42:41;22.42;;;10.57;;
62362;SDS011;48396;48.426;1.500;2023-04-03T00:47:43;22.73;;;10.95;;
62362;SDS011;48396;48.426;1.500;2023-04-03T00:50:09;19.90;;;9.07;;
62362;SDS011;48396;48.426;1.500;2023-04-03T00:52:35;25.63;;;11.55;;
62362;SDS011;48396;48.426;1.500;2023-04-03T00:55:04;22.70;;;11.02;;
62362;SDS011;48396;48.426;1.500;2023-04-03T00:57:32;22.92;;;11.55;;
62362;SDS011;48396;48.426;1.500;2023-04-03T01:00:04;24.85;;;11.95;;
62362;SDS011;48396;48.426;1.500;2023-04-03T01:02:34;22.73;;;11.23;;
62362;SDS011;48396;48.426;1.500;2023-04-03T01:05:01;23.77;;;11.93;;
62362;SDS011;48396;48.426;1.500;2023-04-03T01:07:28;24.48;;;11.23;;
62362;SDS011;48396;48.426;1.500;2023-04-03T01:09:56;27.60;;;12.75;;
62362;SDS011;48396;48.426;1.500;2023-04-03T01:12:24;27.20;;;13.80;;
62362;SDS011;48396;48.426;1.500;2023-04-03T01:14:59;25.70;;;12.32;;
62362;SDS011;48396;48.426;1.500;2023-04-03T01:17:31;25.83;;;13.32;;
62362;SDS011;48396;48.426;1.500;2023-04-03T01:20:31;25.25;;;12.75;;
62362;SDS011;48396;48.426;1.500;2023-04-03T01:25:51;26.95;;;13.52;;
62362;SDS011;48396;48.426;1.500;2023-04-03T01:28:26;25.77;;;13.02;;
62362;SDS011;48396;48.426;1.500;2023-04-03T01:34:00;25.83;;;12.60;;
62362;SDS011;48396;48.426;1.500;2023-04-03T01:36:28;28.63;;;14.50;;
62362;SDS011;48396;48.426;1.500;2023-04-03T01:38:55;27.75;;;14.13;;
62362;SDS011;48396;48.426;1.500;2023-04-03T01:41:21;28.92;;;13.70;;
62362;SDS011;48396;48.426;1.500;2023-04-03T01:43:48;25.88;;;13.73;;
62362;SDS011;48396;48.426;1.500;2023-04-03T01:46:15;28.80;;;15.25;;
62362;SDS011;48396;48.426;1.500;2023-04-03T01:48:41;26.65;;;13.63;;
62362;SDS011;48396;48.426;1.500;2023-04-03T01:51:07;26.77;;;12.75;;
62362;SDS011;48396;48.426;1.500;2023-04-03T01:53:32;28.05;;;13.80;;
62362;SDS011;48396;48.426;1.500;2023-04-03T01:55:58;26.67;;;13.52;;
62362;SDS011;48396;48.426;1.500;2023-04-03T01:58:23;25.00;;;12.80;;
62362;SDS011;48396;48.426;1.500;2023-04-03T02:00:50;23.83;;;12.52;;
62362;SDS011;48396;48.426;1.500;2023-04-03T02:03:16;24.50;;;12.48;;
62362;SDS011;48396;48.426;1.500;2023-04-03T02:05:41;22.13;;;11.10;;
62362;SDS011;48396;48.426;1.500;2023-04-03T02:08:07;23.98;;;11.00;;
62362;SDS011;48396;48.426;1.500;2023-04-03T02:10:32;24.08;;;12.20;;
62362;SDS011;48396;48.426;1.500;2023-04-03T02:12:58;25.90;;;12.68;;
62362;SDS011;48396;48.426;1.500;2023-04-03T02:15:24;25.45;;;12.90;;
62362;SDS011;48396;48.426;1.500;2023-04-03T02:17:49;26.83;;;13.57;;
62362;SDS011;48396;48.426;1.500;2023-04-03T02:20:15;26.58;;;13.13;;
62362;SDS011;48396;48.426;1.500;2023-04-03T02:22:40;25.02;;;12.20;;
62362;SDS011;48396;48.426;1.500;2023-04-03T02:25:06;25.92;;;12.95;;
62362;SDS011;48396;48.426;1.500;2023-04-03T02:27:32;23.98;;;11.63;;
62362;SDS011;48396;48.426;1.500;2023-04-03T02:29:57;23.95;;;11.90;;
62362;SDS011;48396;48.426;1.500;2023-04-03T02:32:23;23.95;;;11.35;;
62362;SDS011;48396;48.426;1.500;2023-04-03T02:34:49;23.15;;;12.18;;
62362;SDS011;48396;48.426;1.500;2023-04-03T02:37:14;23.65;;;11.75;;
62362;SDS011;48396;48.426;1.500;2023-04-03T02:39:40;26.20;;;12.43;;
62362;SDS011;48396;48.426;1.500;2023-04-03T02:42:05;24.33;;;11.68;;
62362;SDS011;48396;48.426;1.500;2023-04-03T02:44:32;25.63;;;12.48;;
62362;SDS011;48396;48.426;1.500;2023-04-03T02:46:57;27.60;;;13.88;;
62362;SDS011;48396;48.426;1.500;2023-04-03T02:49:23;26.85;;;13.23;;
62362;SDS011;48396;48.426;1.500;2023-04-03T02:51:49;27.05;;;13.55;;
62362;SDS011;48396;48.426;1.500;2023-04-03T02:54:15;27.10;;;13.07;;
62362;SDS011;48396;48.426;1.500;2023-04-03T02:56:41;28.17;;;14.98;;
62362;SDS011;48396;48.426;1.500;2023-04-03T02:59:06;23.40;;;12.20;;
62362;SDS011;48396;48.426;1.500;2023-04-03T03:01:32;26.85;;;13.73;;
62362;SDS011;48396;48.426;1.500;2023-04-03T03:03:58;27.35;;;14.48;;
62362;SDS011;48396;48.426;1.500;2023-04-03T03:06:25;29.05;;;15.13;;
62362;SDS011;48396;48.426;1.500;2023-04-03T03:08:51;29.58;;;15.30;;
62362;SDS011;48396;48.426;1.500;2023-04-03T03:11:16;27.58;;;14.73;;
62362;SDS011;48396;48.426;1.500;2023-04-03T03:13:42;25.45;;;13.18;;
62362;SDS011;48396;48.426;1.500;2023-04-03T03:16:07;25.23;;;12.13;;
62362;SDS011;48396;48.426;1.500;2023-04-03T03:18:33;25.27;;;12.10;;
62362;SDS011;48396;48.426;1.500;2023-04-03T03:20:59;25.42;;;12.95;;
62362;SDS011;48396;48.426;1.500;2023-04-03T03:23:26;26.35;;;13.70;;
62362;SDS011;48396;48.426;1.500;2023-04-03T03:25:56;26.95;;;13.70;;
62362;SDS011;48396;48.426;1.500;2023-04-03T03:28:23;25.70;;;13.30;;
62362;SDS011;48396;48.426;1.500;2023-04-03T03:30:49;25.73;;;13.50;;
62362;SDS011;48396;48.426;1.500;2023-04-03T03:33:15;27.58;;;13.68;;
62362;SDS011;48396;48.426;1.500;2023-04-03T03:35:42;25.10;;;12.00;;
62362;SDS011;48396;48.426;1.500;2023-04-03T03:38:08;23.73;;;12.07;;
62362;SDS011;48396;48.426;1.500;2023-04-03T03:40:34;24.15;;;11.73;;
62362;SDS011;48396;48.426;1.500;2023-04-03T03:42:59;23.77;;;12.32;;
62362;SDS011;48396;48.426;1.500;2023-04-03T03:45:25;25.02;;;12.65;;
62362;SDS011;48396;48.426;1.500;2023-04-03T03:47:50;24.05;;;11.40;;
62362;SDS011;48396;48.426;1.500;2023-04-03T03:50:16;24.67;;;12.27;;
62362;SDS011;48396;48.426;1.500;2023-04-03T03:52:42;23.58;;;11.20;;
62362;SDS011;48396;48.426;1.500;2023-04-03T03:55:12;23.20;;;11.63;;
62362;SDS011;48396;48.426;1.500;2023-04-03T03:58:04;24.73;;;12.65;;
62362;SDS011;48396;48.426;1.500;2023-04-03T04:00:54;24.63;;;11.95;;
62362;SDS011;48396;48.426;1.500;2023-04-03T04:03:40;24.88;;;12.70;;
62362;SDS011;48396;48.426;1.500;2023-04-03T04:06:19;24.13;;;12.05;;
62362;SDS011;48396;48.426;1.500;2023-04-03T04:09:08;24.27;;;12.80;;
62362;SDS011;48396;48.426;1.500;2023-04-03T04:11:51;26.35;;;13.35;;
62362;SDS011;48396;48.426;1.500;2023-04-03T04:18:01;24.50;;;12.15;;
62362;SDS011;48396;48.426;1.500;2023-04-03T04:23:30;24.83;;;12.25;;
62362;SDS011;48396;48.426;1.500;2023-04-03T05:17:01;22.17;;;9.93;;
62362;SDS011;48396;48.426;1.500;2023-04-03T05:19:26;22.88;;;11.13;;
62362;SDS011;48396;48.426;1.500;2023-04-03T05:21:52;22.33;;;11.10;;
62362;SDS011;48396;48.426;1.500;2023-04-03T05:24:17;20.67;;;10.13;;
62362;SDS011;48396;48.426;1.500;2023-04-03T05:26:43;22.55;;;10.90;;
62362;SDS011;48396;48.426;1.500;2023-04-03T05:29:09;21.45;;;10.20;;
62362;SDS011;48396;48.426;1.500;2023-04-03T05:31:35;21.00;;;10.15;;
62362;SDS011;48396;48.426;1.500;2023-04-03T05:34:00;23.08;;;10.43;;
62362;SDS011;48396;48.426;1.500;2023-04-03T05:36:26;20.02;;;8.82;;
62362;SDS011;48396;48.426;1.500;2023-04-03T05:38:52;19.13;;;8.38;;
62362;SDS011;48396;48.426;1.500;2023-04-03T05:41:17;21.67;;;10.05;;
62362;SDS011;48396;48.426;1.500;2023-04-03T05:43:45;21.25;;;9.50;;
62362;SDS011;48396;48.426;1.500;2023-04-03T05:46:11;20.23;;;9.65;;
62362;SDS011;48396;48.426;1.500;2023-04-03T05:48:38;21.27;;;9.90;;
62362;SDS011;48396;48.426;1.500;2023-04-03T05:51:05;20.67;;;8.68;;
62362;SDS011;48396;48.426;1.500;2023-04-03T05:53:32;20.58;;;9.70;;
62362;SDS011;48396;48.426;1.500;2023-04-03T05:56:00;22.30;;;11.00;;
62362;SDS011;48396;48.426;1.500;2023-04-03T05:58:25;19.17;;;9.32;;
62362;SDS011;48396;48.426;1.500;2023-04-03T06:00:51;19.45;;;8.98;;
62362;SDS011;48396;48.426;1.500;2023-04-03T06:03:17;19.92;;;9.25;;
62362;SDS011;48396;48.426;1.500;2023-04-03T06:05:42;19.95;;;9.40;;
62362;SDS011;48396;48.426;1.500;2023-04-03T06:08:08;17.67;;;8.05;;
62362;SDS011;48396;48.426;1.500;2023-04-03T06:10:34;18.48;;;9.35;;
62362;SDS011;48396;48.426;1.500;2023-04-03T06:13:00;17.83;;;8.07;;
62362;SDS011;48396;48.426;1.500;2023-04-03T06:15:26;18.73;;;8.70;;
62362;SDS011;48396;48.426;1.500;2023-04-03T06:17:52;18.48;;;8.52;;
62362;SDS011;48396;48.426;1.500;2023-04-03T06:20:17;19.80;;;8.55;;
62362;SDS011;48396;48.426;1.500;2023-04-03T06:22:43;19.08;;;9.20;;
62362;SDS011;48396;48.426;1.500;2023-04-03T06:25:09;19.15;;;9.27;;
62362;SDS011;48396;48.426;1.500;2023-04-03T06:27:35;18.63;;;8.20;;
62362;SDS011;48396;48.426;1.500;2023-04-03T06:30:00;19.92;;;9.23;;
62362;SDS011;48396;48.426;1.500;2023-04-03T06:32:26;19.80;;;9.27;;
62362;SDS011;48396;48.426;1.500;2023-04-03T06:34:51;18.17;;;7.88;;
62362;SDS011;48396;48.426;1.500;2023-04-03T06:37:19;17.60;;;7.85;;
62362;SDS011;48396;48.426;1.500;2023-04-03T06:39:46;18.63;;;8.20;;
62362;SDS011;48396;48.426;1.500;2023-04-03T06:42:12;17.38;;;7.60;;
62362;SDS011;48396;48.426;1.500;2023-04-03T06:44:38;20.80;;;8.90;;
62362;SDS011;48396;48.426;1.500;2023-04-03T06:47:04;18.65;;;8.38;;
62362;SDS011;48396;48.426;1.500;2023-04-03T06:49:30;17.55;;;7.60;;
62362;SDS011;48396;48.426;1.500;2023-04-03T06:51:56;15.45;;;7.32;;
62362;SDS011;48396;48.426;1.500;2023-04-03T06:54:22;18.02;;;7.32;;
62362;SDS011;48396;48.426;1.500;2023-04-03T06:56:48;19.35;;;8.32;;
62362;SDS011;48396;48.426;1.500;2023-04-03T06:59:15;17.73;;;8.05;;
62362;SDS011;48396;48.426;1.500;2023-04-03T07:01:41;19.70;;;8.95;;
62362;SDS011;48396;48.426;1.500;2023-04-03T07:04:07;17.35;;;8.07;;
62362;SDS011;48396;48.426;1.500;2023-04-03T07:06:33;18.08;;;8.13;;
62362;SDS011;48396;48.426;1.500;2023-04-03T07:08:59;18.98;;;8.50;;
62362;SDS011;48396;48.426;1.500;2023-04-03T07:11:25;17.25;;;7.75;;
62362;SDS011;48396;48.426;1.500;2023-04-03T07:13:51;19.27;;;8.65;;
62362;SDS011;48396;48.426;1.500;2023-04-03T07:16:16;17.83;;;8.75;;
62362;SDS011;48396;48.426;1.500;2023-04-03T07:18:42;17.45;;;8.27;;
62362;SDS011;48396;48.426;1.500;2023-04-03T07:21:08;19.00;;;8.40;;
62362;SDS011;48396;48.426;1.500;2023-04-03T07:23:33;18.80;;;8.32;;
62362;SDS011;48396;48.426;1.500;2023-04-03T07:25:59;18.20;;;8.48;;
62362;SDS011;48396;48.426;1.500;2023-04-03T07:28:26;19.52;;;8.35;;
62362;SDS011;48396;48.426;1.500;2023-04-03T07:30:52;18.60;;;8.75;;
62362;SDS011;48396;48.426;1.500;2023-04-03T07:33:23;20.90;;;10.10;;
62362;SDS011;48396;48.426;1.500;2023-04-03T07:35:49;18.35;;;9.07;;
62362;SDS011;48396;48.426;1.500;2023-04-03T07:38:15;17.83;;;8.75;;
62362;SDS011;48396;48.426;1.500;2023-04-03T07:40:45;19.30;;;9.60;;
62362;SDS011;48396;48.426;1.500;2023-04-03T07:43:12;19.63;;;9.50;;
62362;SDS011;48396;48.426;1.500;2023-04-03T07:45:37;18.63;;;8.45;;
62362;SDS011;48396;48.426;1.500;2023-04-03T07:48:03;19.13;;;8.95;;
62362;SDS011;48396;48.426;1.500;2023-04-03T07:50:28;17.85;;;8.32;;
62362;SDS011;48396;48.426;1.500;2023-04-03T07:52:56;17.27;;;8.90;;
62362;SDS011;48396;48.426;1.500;2023-04-03T07:55:22;18.05;;;9.02;;
62362;SDS011;48396;48.426;1.500;2023-04-03T07:57:48;19.10;;;8.85;;
62362;SDS011;48396;48.426;1.500;2023-04-03T08:00:14;17.33;;;8.30;;
62362;SDS011;48396;48.426;1.500;2023-04-03T08:02:42;18.05;;;9.18;;
62362;SDS011;48396;48.426;1.500;2023-04-03T08:05:09;19.00;;;9.25;;
62362;SDS011;48396;48.426;1.500;2023-04-03T08:07:36;20.35;;;9.43;;
62362;SDS011;48396;48.426;1.500;2023-04-03T08:10:04;18.42;;;8.60;;
62362;SDS011;48396;48.426;1.500;2023-04-03T08:12:30;18.17;;;8.70;;
62362;SDS011;48396;48.426;1.500;2023-04-03T08:14:56;17.65;;;8.60;;
62362;SDS011;48396;48.426;1.500;2023-04-03T08:17:24;18.48;;;8.18;;
62362;SDS011;48396;48.426;1.500;2023-04-03T08:19:50;16.38;;;7.40;;
62362;SDS011;48396;48.426;1.500;2023-04-03T08:22:15;15.73;;;7.57;;
62362;SDS011;48396;48.426;1.500;2023-04-03T08:24:41;15.27;;;7.32;;
62362;SDS011;48396;48.426;1.500;2023-04-03T08:27:06;15.73;;;7.90;;
62362;SDS011;48396;48.426;1.500;2023-04-03T08:29:32;16.05;;;8.00;;
62362;SDS011;48396;48.426;1.500;2023-04-03T08:31:57;19.10;;;8.02;;
62362;SDS011;48396;48.426;1.500;2023-04-03T08:34:23;19.38;;;7.88;;
62362;SDS011;48396;48.426;1.500;2023-04-03T08:36:48;18.63;;;9.02;;
62362;SDS011;48396;48.426;1.500;2023-04-03T08:39:14;14.77;;;6.82;;
62362;SDS011;48396;48.426;1.500;2023-04-03T08:41:43;15.15;;;7.10;;
62362;SDS011;48396;48.426;1.500;2023-04-03T08:49:41;12.65;;;6.28;;
62362;SDS011;48396;48.426;1.500;2023-04-03T08:54:58;18.40;;;7.72;;
62362;SDS011;48396;48.426;1.500;2023-04-03T08:57:38;11.82;;;6.20;;
62362;SDS011;48396;48.426;1.500;2023-04-03T09:00:18;11.40;;;5.32;;
62362;SDS011;48396;48.426;1.500;2023-04-03T09:02:52;10.32;;;5.70;;
62362;SDS011;48396;48.426;1.500;2023-04-03T09:05:43;11.05;;;5.38;;
62362;SDS011;48396;48.426;1.500;2023-04-03T09:10:53;10.05;;;5.13;;
62362;SDS011;48396;48.426;1.500;2023-04-03T09:13:40;11.25;;;5.65;;
62362;SDS011;48396;48.426;1.500;2023-04-03T09:16:16;10.75;;;4.97;;
62362;SDS011;48396;48.426;1.500;2023-04-03T09:18:53;11.77;;;5.82;;
62362;SDS011;48396;48.426;1.500;2023-04-03T09:21:36;9.73;;;5.15;;
62362;SDS011;48396;48.426;1.500;2023-04-03T09:24:04;10.88;;;5.15;;
62362;SDS011;48396;48.426;1.500;2023-04-03T09:26:41;9.38;;;5.15;;
62362;SDS011;48396;48.426;1.500;2023-04-03T09:29:10;13.48;;;5.97;;
62362;SDS011;48396;48.426;1.500;2023-04-03T09:31:43;11.82;;;5.65;;
62362;SDS011;48396;48.426;1.500;2023-04-03T09:34:32;15.07;;;6.35;;
62362;SDS011;48396;48.426;1.500;2023-04-03T09:36:58;12.10;;;5.63;;
62362;SDS011;48396;48.426;1.500;2023-04-03T09:39:30;8.43;;;4.70;;
62362;SDS011;48396;48.426;1.500;2023-04-03T09:44:29;8.63;;;5.07;;
62362;SDS011;48396;48.426;1.500;2023-04-03T09:47:00;9.43;;;5.07;;
62362;SDS011;48396;48.426;1.500;2023-04-03T09:49:44;8.40;;;4.78;;
62362;SDS011;48396;48.426;1.500;2023-04-03T09:52:19;7.38;;;4.00;;
62362;SDS011;48396;48.426;1.500;2023-04-03T09:54:48;7.10;;;4.40;;
62362;SDS011;48396;48.426;1.500;2023-04-03T09:57:14;11.77;;;5.30;;
62362;SDS011;48396;48.426;1.500;2023-04-03T09:59:42;9.43;;;4.70;;
62362;SDS011;48396;48.426;1.500;2023-04-03T10:02:23;13.23;;;5.40;;
62362;SDS011;48396;48.426;1.500;2023-04-03T10:04:54;11.18;;;5.80;;
62362;SDS011;48396;48.426;1.500;2023-04-03T10:07:31;11.38;;;5.50;;
62362;SDS011;48396;48.426;1.500;2023-04-03T10:10:00;9.68;;;5.13;;
62362;SDS011;48396;48.426;1.500;2023-04-03T10:12:40;10.48;;;5.07;;
62362;SDS011;48396;48.426;1.500;2023-04-03T10:15:18;10.40;;;5.68;;
62362;SDS011;48396;48.426;1.500;2023-04-03T10:23:16;9.27;;;4.80;;
62362;SDS011;48396;48.426;1.500;2023-04-03T10:26:05;11.32;;;5.15;;
62362;SDS011;48396;48.426;1.500;2023-04-03T10:31:36;11.00;;;5.82;;
62362;SDS011;48396;48.426;1.500;2023-04-03T10:39:30;9.80;;;5.20;;
62362;SDS011;48396;48.426;1.500;2023-04-03T10:47:44;13.07;;;6.28;;
62362;SDS011;48396;48.426;1.500;2023-04-03T10:51:22;11.80;;;5.85;;
62362;SDS011;48396;48.426;1.500;2023-04-03T10:53:36;10.93;;;5.95;;
62362;SDS011;48396;48.426;1.500;2023-04-03T10:58:58;14.00;;;6.15;;
62362;SDS011;48396;48.426;1.500;2023-04-03T11:01:33;11.95;;;5.85;;
62362;SDS011;48396;48.426;1.500;2023-04-03T11:04:04;10.93;;;5.82;;
62362;SDS011;48396;48.426;1.500;2023-04-03T11:06:35;11.65;;;5.82;;
62362;SDS011;48396;48.426;1.500;2023-04-03T11:09:19;9.68;;;5.30;;
62362;SDS011;48396;48.426;1.500;2023-04-03T11:11:58;12.35;;;5.70;;
62362;SDS011;48396;48.426;1.500;2023-04-03T11:14:46;9.40;;;5.13;;
62362;SDS011;48396;48.426;1.500;2023-04-03T11:24:56;10.90;;;5.90;;
62362;SDS011;48396;48.426;1.500;2023-04-03T11:27:44;10.20;;;5.10;;
62362;SDS011;48396;48.426;1.500;2023-04-03T11:30:25;12.75;;;6.15;;
62362;SDS011;48396;48.426;1.500;2023-04-03T11:33:10;11.02;;;5.47;;
62362;SDS011;48396;48.426;1.500;2023-04-03T11:35:51;11.48;;;5.57;;
62362;SDS011;48396;48.426;1.500;2023-04-03T11:38:25;7.63;;;4.30;;
62362;SDS011;48396;48.426;1.500;2023-04-03T11:40:54;8.43;;;4.55;;
62362;SDS011;48396;48.426;1.500;2023-04-03T11:43:25;10.38;;;5.47;;
62362;SDS011;48396;48.426;1.500;2023-04-03T11:45:57;8.38;;;4.75;;
62362;SDS011;48396;48.426;1.500;2023-04-03T11:51:02;8.70;;;5.03;;
62362;SDS011;48396;48.426;1.500;2023-04-03T11:53:53;10.65;;;5.55;;
62362;SDS011;48396;48.426;1.500;2023-04-03T12:01:43;11.27;;;5.95;;
62362;SDS011;48396;48.426;1.500;2023-04-03T12:04:11;8.70;;;5.07;;
62362;SDS011;48396;48.426;1.500;2023-04-03T12:09:26;7.88;;;4.82;;
62362;SDS011;48396;48.426;1.500;2023-04-03T12:11:52;9.75;;;5.30;;
62362;SDS011;48396;48.426;1.500;2023-04-03T12:14:21;9.43;;;4.72;;
62362;SDS011;48396;48.426;1.500;2023-04-03T12:16:49;8.27;;;4.78;;
62362;SDS011;48396;48.426;1.500;2023-04-03T12:24:25;7.03;;;4.57;;
62362;SDS011;48396;48.426;1.500;2023-04-03T12:29:53;9.85;;;5.20;;
62362;SDS011;48396;48.426;1.500;2023-04-03T12:32:35;11.65;;;5.60;;
62362;SDS011;48396;48.426;1.500;2023-04-03T12:41:00;6.60;;;3.35;;
62362;SDS011;48396;48.426;1.500;2023-04-03T12:43:43;10.05;;;4.22;;
62362;SDS011;48396;48.426;1.500;2023-04-03T12:46:23;9.85;;;4.55;;
62362;SDS011;48396;48.426;1.500;2023-04-03T12:48:52;7.03;;;4.20;;
62362;SDS011;48396;48.426;1.500;2023-04-03T12:51:28;9.45;;;4.40;;
62362;SDS011;48396;48.426;1.500;2023-04-03T12:57:20;9.15;;;4.50;;
62362;SDS011;48396;48.426;1.500;2023-04-03T12:59:48;7.43;;;4.18;;
62362;SDS011;48396;48.426;1.500;2023-04-03T13:02:20;10.15;;;5.00;;
62362;SDS011;48396;48.426;1.500;2023-04-03T13:04:48;8.70;;;4.28;;
62362;SDS011;48396;48.426;1.500;2023-04-03T13:07:20;7.63;;;4.30;;
62362;SDS011;48396;48.426;1.500;2023-04-03T13:09:55;7.70;;;3.97;;
62362;SDS011;48396;48.426;1.500;2023-04-03T13:12:27;7.47;;;3.70;;
62362;SDS011;48396;48.426;1.500;2023-04-03T13:14:54;7.28;;;3.42;;
62362;SDS011;48396;48.426;1.500;2023-04-03T13:17:23;8.68;;;4.40;;
62362;SDS011;48396;48.426;1.500;2023-04-03T13:19:50;9.68;;;4.20;;
62362;SDS011;48396;48.426;1.500;2023-04-03T13:25:05;7.97;;;4.03;;
62362;SDS011;48396;48.426;1.500;2023-04-03T13:27:34;8.70;;;4.68;;
62362;SDS011;48396;48.426;1.500;2023-04-03T13:30:00;6.95;;;3.78;;
62362;SDS011;48396;48.426;1.500;2023-04-03T13:32:28;6.05;;;3.70;;
62362;SDS011;48396;48.426;1.500;2023-04-03T13:34:55;7.05;;;4.15;;
62362;SDS011;48396;48.426;1.500;2023-04-03T13:37:28;10.20;;;4.38;;
62362;SDS011;48396;48.426;1.500;2023-04-03T13:39:57;8.20;;;3.92;;
62362;SDS011;48396;48.426;1.500;2023-04-03T13:42:28;10.52;;;3.58;;
62362;SDS011;48396;48.426;1.500;2023-04-03T13:45:16;7.93;;;4.03;;
62362;SDS011;48396;48.426;1.500;2023-04-03T13:47:43;7.82;;;3.63;;
62362;SDS011;48396;48.426;1.500;2023-04-03T13:52:40;7.40;;;3.40;;
62362;SDS011;48396;48.426;1.500;2023-04-03T13:57:53;6.10;;;3.88;;
62362;SDS011;48396;48.426;1.500;2023-04-03T14:00:32;7.53;;;3.70;;
62362;SDS011;48396;48.426;1.500;2023-04-03T14:03:02;8.95;;;3.63;;
62362;SDS011;48396;48.426;1.500;2023-04-03T14:05:36;7.25;;;3.78;;
62362;SDS011;48396;48.426;1.500;2023-04-03T14:08:02;6.25;;;3.55;;
62362;SDS011;48396;48.426;1.500;2023-04-03T14:10:27;7.70;;;3.88;;
62362;SDS011;48396;48.426;1.500;2023-04-03T14:12:53;7.22;;;4.00;;
62362;SDS011;48396;48.426;1.500;2023-04-03T14:15:22;7.75;;;3.50;;
62362;SDS011;48396;48.426;1.500;2023-04-03T14:17:51;7.80;;;3.30;;
62362;SDS011;48396;48.426;1.500;2023-04-03T14:20:18;7.68;;;3.80;;
62362;SDS011;48396;48.426;1.500;2023-04-03T14:22:46;8.50;;;3.90;;
62362;SDS011;48396;48.426;1.500;2023-04-03T14:25:13;7.63;;;3.50;;
62362;SDS011;48396;48.426;1.500;2023-04-03T14:27:41;7.03;;;3.30;;
62362;SDS011;48396;48.426;1.500;2023-04-03T14:30:11;7.22;;;3.50;;
62362;SDS011;48396;48.426;1.500;2023-04-03T14:32:40;4.00;;;2.70;;
62362;SDS011;48396;48.426;1.500;2023-04-03T14:35:06;3.45;;;2.25;;
62362;SDS011;48396;48.426;1.500;2023-04-03T14:37:32;4.82;;;3.03;;
62362;SDS011;48396;48.426;1.500;2023-04-03T14:39:58;6.95;;;3.05;;
62362;SDS011;48396;48.426;1.500;2023-04-03T14:42:27;5.18;;;3.35;;
62362;SDS011;48396;48.426;1.500;2023-04-03T14:44:56;4.43;;;3.00;;
62362;SDS011;48396;48.426;1.500;2023-04-03T14:47:23;8.75;;;3.90;;
62362;SDS011;48396;48.426;1.500;2023-04-03T14:49:51;6.30;;;3.10;;
62362;SDS011;48396;48.426;1.500;2023-04-03T14:52:34;4.40;;;2.78;;
62362;SDS011;48396;48.426;1.500;2023-04-03T14:55:01;5.45;;;2.70;;
62362;SDS011;48396;48.426;1.500;2023-04-03T14:57:28;5.03;;;2.88;;
62362;SDS011;48396;48.426;1.500;2023-04-03T14:59:55;6.07;;;2.95;;
62362;SDS011;48396;48.426;1.500;2023-04-03T15:02:34;5.47;;;2.78;;
62362;SDS011;48396;48.426;1.500;2023-04-03T15:05:03;4.18;;;2.97;;
62362;SDS011;48396;48.426;1.500;2023-04-03T15:07:38;5.95;;;2.88;;
62362;SDS011;48396;48.426;1.500;2023-04-03T15:10:22;6.25;;;3.05;;
62362;SDS011;48396;48.426;1.500;2023-04-03T15:12:52;4.80;;;2.85;;
62362;SDS011;48396;48.426;1.500;2023-04-03T15:15:19;5.57;;;2.90;;
62362;SDS011;48396;48.426;1.500;2023-04-03T15:17:46;4.22;;;2.90;;
62362;SDS011;48396;48.426;1.500;2023-04-03T15:20:16;4.05;;;2.70;;
62362;SDS011;48396;48.426;1.500;2023-04-03T15:22:43;7.68;;;2.95;;
62362;SDS011;48396;48.426;1.500;2023-04-03T15:25:09;3.63;;;2.58;;
62362;SDS011;48396;48.426;1.500;2023-04-03T15:27:35;5.40;;;2.70;;
62362;SDS011;48396;48.426;1.500;2023-04-03T15:30:01;5.55;;;2.92;;
62362;SDS011;48396;48.426;1.500;2023-04-03T15:32:28;6.60;;;3.00;;
62362;SDS011;48396;48.426;1.500;2023-04-03T15:34:53;4.85;;;2.70;;
62362;SDS011;48396;48.426;1.500;2023-04-03T15:37:19;5.35;;;2.45;;
62362;SDS011;48396;48.426;1.500;2023-04-03T15:39:45;3.63;;;2.15;;
62362;SDS011;48396;48.426;1.500;2023-04-03T15:42:11;6.13;;;2.85;;
62362;SDS011;48396;48.426;1.500;2023-04-03T15:44:37;6.07;;;2.50;;
62362;SDS011;48396;48.426;1.500;2023-04-03T15:47:03;4.63;;;2.25;;
62362;SDS011;48396;48.426;1.500;2023-04-03T15:49:28;5.88;;;2.78;;
62362;SDS011;48396;48.426;1.500;2023-04-03T15:51:55;5.82;;;2.63;;
62362;SDS011;48396;48.426;1.500;2023-04-03T15:54:21;4.60;;;2.30;;
62362;SDS011;48396;48.426;1.500;2023-04-03T15:56:48;4.53;;;2.60;;
62362;SDS011;48396;48.426;1.500;2023-04-03T15:59:14;5.90;;;2.60;;
62362;SDS011;48396;48.426;1.500;2023-04-03T16:01:40;3.63;;;2.30;;
62362;SDS011;48396;48.426;1.500;2023-04-03T16:04:07;4.65;;;2.35;;
62362;SDS011;48396;48.426;1.500;2023-04-03T16:06:34;3.20;;;1.95;;
62362;SDS011;48396;48.426;1.500;2023-04-03T16:09:01;4.03;;;2.38;;
62362;SDS011;48396;48.426;1.500;2023-04-03T16:11:26;6.13;;;2.40;;
62362;SDS011;48396;48.426;1.500;2023-04-03T16:13:53;4.05;;;2.13;;
62362;SDS011;48396;48.426;1.500;2023-04-03T16:16:19;4.32;;;2.67;;
62362;SDS011;48396;48.426;1.500;2023-04-03T16:18:45;4.35;;;2.50;;
62362;SDS011;48396;48.426;1.500;2023-04-03T16:21:12;6.05;;;2.90;;
62362;SDS011;48396;48.426;1.500;2023-04-03T16:23:39;5.80;;;2.50;;
62362;SDS011;48396;48.426;1.500;2023-04-03T16:26:05;6.55;;;2.90;;
62362;SDS011;48396;48.426;1.500;2023-04-03T16:28:31;5.57;;;2.75;;
62362;SDS011;48396;48.426;1.500;2023-04-03T16:30:57;5.95;;;2.75;;
62362;SDS011;48396;48.426;1.500;2023-04-03T16:33:23;4.47;;;2.85;;
62362;SDS011;48396;48.426;1.500;2023-04-03T16:35:49;4.53;;;2.70;;
62362;SDS011;48396;48.426;1.500;2023-04-03T16:38:15;3.20;;;2.13;;
62362;SDS011;48396;48.426;1.500;2023-04-03T16:40:41;8.75;;;2.53;;
62362;SDS011;48396;48.426;1.500;2023-04-03T16:43:06;7.70;;;2.80;;
62362;SDS011;48396;48.426;1.500;2023-04-03T16:45:32;3.53;;;2.03;;
62362;SDS011;48396;48.426;1.500;2023-04-03T16:47:58;4.10;;;2.17;;
62362;SDS011;48396;48.426;1.500;2023-04-03T16:50:23;4.40;;;2.70;;
62362;SDS011;48396;48.426;1.500;2023-04-03T16:52:49;4.00;;;2.47;;
62362;SDS011;48396;48.426;1.500;2023-04-03T16:55:14;2.53;;;1.90;;
62362;SDS011;48396;48.426;1.500;2023-04-03T16:57:40;5.70;;;2.30;;
62362;SDS011;48396;48.426;1.500;2023-04-03T17:00:06;4.28;;;2.30;;
62362;SDS011;48396;48.426;1.500;2023-04-03T17:02:33;3.80;;;1.98;;
62362;SDS011;48396;48.426;1.500;2023-04-03T17:04:58;3.42;;;2.08;;
62362;SDS011;48396;48.426;1.500;2023-04-03T17:07:24;6.70;;;2.50;;
62362;SDS011;48396;48.426;1.500;2023-04-03T17:09:50;2.83;;;2.00;;
62362;SDS011;48396;48.426;1.500;2023-04-03T17:12:18;5.80;;;2.33;;